Time;durP1;ratioP1;P1;durP2;ratioP2;P2;SDS_P1;SDS_P2;PMS_P1;PMS_P2;Temp;Humidity;BMP_temperature;BMP_pressure;BME280_temperature;BME280_humidity;BME280_pressure;Samples;Min_cycle;Max_cycle;Signal;HPM_P1;HPM_P2
2021/08/29 00:01:35;;;;;;;2.50;1.10;;;18.40;61.00;;;;;;2414965;52;20918;-69
2021/08/29 00:04:01;;;;;;;2.78;1.00;;;18.40;61.00;;;;;;2366807;53;21762;-69
2021/08/29 00:06:28;;;;;;;2.03;0.90;;;18.40;61.10;;;;;;2482019;52;21032;-71
2021/08/29 00:08:55;;;;;;;2.53;1.27;;;18.40;61.10;;;;;;2371171;53;20953;-69
2021/08/29 00:11:22;;;;;;;3.17;1.42;;;18.30;61.00;;;;;;2365891;53;21559;-70
2021/08/29 00:13:49;;;;;;;2.85;1.58;;;18.30;61.00;;;;;;2371048;52;21018;-68
2021/08/29 00:16:16;;;;;;;2.58;1.27;;;18.30;61.00;;;;;;2371256;52;20978;-73
2021/08/29 00:18:42;;;;;;;3.40;1.37;;;18.30;61.10;;;;;;2367201;53;21077;-70
2021/08/29 00:21:08;;;;;;;3.35;1.33;;;18.30;61.20;;;;;;2367233;52;21001;-69
2021/08/29 00:23:35;;;;;;;3.05;1.50;;;18.30;61.30;;;;;;2366918;53;21053;-69
2021/08/29 00:26:03;;;;;;;3.28;1.40;;;18.30;61.40;;;;;;2370977;52;21580;-70
2021/08/29 00:28:29;;;;;;;3.72;1.55;;;18.30;61.50;;;;;;2354150;52;20965;-70
2021/08/29 00:30:56;;;;;;;2.50;1.30;;;18.30;61.50;;;;;;2381395;53;21752;-68
2021/08/29 00:33:23;;;;;;;2.83;1.45;;;18.30;61.60;;;;;;2359487;53;20917;-69
2021/08/29 00:35:52;;;;;;;3.67;1.50;;;18.30;61.60;;;;;;2372034;53;20951;-69
2021/08/29 00:38:19;;;;;;;2.78;1.10;;;18.30;61.60;;;;;;2367477;53;20993;-70
2021/08/29 00:40:47;;;;;;;2.97;1.10;;;18.30;61.70;;;;;;2375111;52;21026;-68
2021/08/29 00:43:14;;;;;;;3.20;1.30;;;18.40;61.80;;;;;;2345524;53;21814;-69
2021/08/29 00:49:11;;;;;;;3.12;1.17;;;18.40;62.30;;;;;;2371523;52;20994;-68
2021/08/29 00:51:37;;;;;;;2.55;1.25;;;18.40;61.90;;;;;;2369952;52;21473;-68
2021/08/29 00:54:06;;;;;;;2.83;1.45;;;18.40;61.90;;;;;;2366809;52;20957;-69
2021/08/29 00:56:32;;;;;;;2.60;1.42;;;18.40;62.10;;;;;;2367081;53;20958;-68
2021/08/29 00:58:58;;;;;;;3.33;1.60;;;18.40;62.00;;;;;;2371625;52;20958;-71
2021/08/29 01:01:34;;;;;;;2.60;1.40;;;18.40;62.00;;;;;;2357315;53;20950;-68
2021/08/29 01:04:02;;;;;;;2.47;1.30;;;18.50;62.20;;;;;;2367771;52;20977;-73
2021/08/29 01:06:41;;;;;;;2.37;1.30;;;18.50;62.10;;;;;;2367143;53;21061;-69
2021/08/29 01:09:08;;;;;;;3.28;1.40;;;18.50;62.30;;;;;;2352575;53;20962;-68
2021/08/29 01:11:34;;;;;;;3.37;1.25;;;18.50;62.00;;;;;;2366991;53;21321;-70
2021/08/29 01:14:12;;;;;;;2.28;1.20;;;18.50;61.90;;;;;;2367171;53;20905;-71
2021/08/29 01:16:39;;;;;;;3.25;1.23;;;18.50;62.10;;;;;;2376133;52;20963;-70
2021/08/29 01:19:08;;;;;;;3.20;1.55;;;18.50;61.90;;;;;;2367602;53;20989;-71
2021/08/29 01:21:35;;;;;;;2.85;1.25;;;18.50;61.90;;;;;;2460623;52;21761;-71
2021/08/29 01:24:05;;;;;;;2.70;1.65;;;18.50;61.90;;;;;;2363940;53;20993;-70
2021/08/29 01:26:54;;;;;;;2.53;1.20;;;18.50;62.00;;;;;;2436498;52;20978;-68
2021/08/29 01:29:29;;;;;;;2.35;1.10;;;18.50;62.20;;;;;;2371958;52;21401;-70
2021/08/29 01:31:56;;;;;;;2.80;1.40;;;18.50;62.20;;;;;;2387626;52;20985;-67
2021/08/29 01:34:22;;;;;;;2.60;1.10;;;18.50;62.00;;;;;;2363291;53;20910;-70
2021/08/29 01:36:54;;;;;;;2.67;1.20;;;18.40;61.90;;;;;;2371749;52;21018;-71
2021/08/29 01:39:20;;;;;;;2.70;1.33;;;18.50;62.00;;;;;;2454568;52;21739;-70
2021/08/29 01:41:49;;;;;;;4.12;1.25;;;18.40;61.90;;;;;;2367081;53;20938;-72
2021/08/29 01:44:17;;;;;;;3.10;1.27;;;18.40;61.90;;;;;;2346471;53;20933;-71
2021/08/29 01:46:43;;;;;;;2.95;1.65;;;18.40;61.90;;;;;;2372447;53;21022;-69
2021/08/29 01:49:10;;;;;;;2.95;1.42;;;18.40;61.90;;;;;;2366218;53;21742;-70
2021/08/29 01:51:37;;;;;;;3.22;1.60;;;18.40;61.90;;;;;;2618486;52;20990;-69
2021/08/29 01:54:03;;;;;;;2.53;1.40;;;18.40;61.90;;;;;;2349305;53;20925;-68
2021/08/29 01:56:31;;;;;;;2.70;1.30;;;18.40;61.90;;;;;;2377063;52;20982;-72
2021/08/29 01:58:57;;;;;;;2.47;1.30;;;18.40;61.90;;;;;;2351653;53;21385;-70
2021/08/29 02:01:23;;;;;;;4.78;1.50;;;18.40;61.90;;;;;;2362825;53;20929;-67
2021/08/29 02:03:50;;;;;;;4.47;1.77;;;18.30;61.70;;;;;;2370226;53;20943;-67
2021/08/29 02:06:31;;;;;;;3.00;1.48;;;18.30;61.80;;;;;;2371344;53;21006;-68
2021/08/29 02:09:00;;;;;;;2.87;1.55;;;18.30;62.10;;;;;;2408102;52;21756;-69
2021/08/29 02:11:27;;;;;;;3.97;1.90;;;18.30;61.90;;;;;;2372640;52;21011;-71
2021/08/29 02:13:55;;;;;;;3.55;1.75;;;18.30;61.90;;;;;;2367012;52;20969;-71
2021/08/29 02:16:21;;;;;;;2.42;1.35;;;18.30;62.00;;;;;;2619774;52;20918;-68
2021/08/29 02:18:50;;;;;;;3.00;1.65;;;18.20;61.90;;;;;;2368498;53;20899;-68
2021/08/29 02:21:16;;;;;;;3.62;1.70;;;18.20;62.00;;;;;;2341216;53;20937;-69
2021/08/29 02:23:44;;;;;;;2.40;1.30;;;18.20;62.00;;;;;;2618930;52;21438;-68
2021/08/29 02:26:11;;;;;;;2.85;1.40;;;18.20;62.10;;;;;;2618034;52;21037;-70
2021/08/29 02:28:37;;;;;;;3.15;1.67;;;18.20;62.10;;;;;;2375414;52;21717;-71
2021/08/29 02:31:03;;;;;;;3.20;1.90;;;18.20;62.20;;;;;;2354107;53;20937;-69
2021/08/29 02:33:30;;;;;;;4.12;2.37;;;18.10;62.10;;;;;;2358607;53;21419;-69
2021/08/29 02:35:59;;;;;;;4.25;2.20;;;18.10;62.10;;;;;;2358503;53;20898;-68
2021/08/29 02:38:26;;;;;;;4.20;2.50;;;18.10;62.30;;;;;;2366787;53;20984;-69
2021/08/29 02:40:53;;;;;;;3.83;2.08;;;18.10;62.30;;;;;;2367060;53;20901;-67
2021/08/29 02:43:20;;;;;;;3.75;2.15;;;18.10;62.30;;;;;;2618355;52;20937;-70
2021/08/29 02:45:46;;;;;;;3.78;2.00;;;18.10;62.30;;;;;;2366921;53;20913;-68
2021/08/29 02:48:12;;;;;;;4.55;2.20;;;18.10;62.20;;;;;;2619106;52;20933;-70
2021/08/29 02:50:39;;;;;;;3.00;1.67;;;18.10;62.20;;;;;;2367213;53;20913;-71
2021/08/29 02:53:05;;;;;;;3.67;2.25;;;18.10;62.30;;;;;;2618520;52;20942;-67
2021/08/29 02:55:32;;;;;;;4.43;2.20;;;18.10;62.30;;;;;;2604188;52;20910;-70
2021/08/29 02:58:05;;;;;;;3.50;1.75;;;18.00;62.30;;;;;;2619866;52;20971;-71
2021/08/29 03:00:33;;;;;;;3.37;1.90;;;18.00;62.50;;;;;;2366129;53;20998;-70
2021/08/29 03:03:00;;;;;;;4.37;2.25;;;18.00;62.50;;;;;;2371211;53;21014;-67
2021/08/29 03:05:30;;;;;;;4.68;2.30;;;18.00;62.50;;;;;;2591373;52;20978;-71
2021/08/29 03:07:57;;;;;;;3.95;2.20;;;18.00;62.50;;;;;;2347620;53;20989;-68
2021/08/29 03:10:24;;;;;;;3.95;2.55;;;18.10;62.60;;;;;;2618320;52;20963;-71
2021/08/29 03:12:50;;;;;;;3.80;2.10;;;18.00;62.50;;;;;;2619527;52;20930;-69
2021/08/29 03:15:17;;;;;;;4.32;2.53;;;18.00;62.50;;;;;;2483794;52;21025;-71
2021/08/29 03:17:43;;;;;;;3.97;2.58;;;18.00;62.60;;;;;;2357841;53;20913;-67
2021/08/29 03:20:11;;;;;;;6.12;3.10;;;18.10;62.80;;;;;;2376144;52;20974;-73
2021/08/29 03:22:40;;;;;;;6.60;3.28;;;18.10;62.80;;;;;;2360827;53;20965;-70
2021/08/29 03:25:08;;;;;;;4.20;2.50;;;18.10;62.90;;;;;;2404699;52;21701;-70
2021/08/29 03:27:34;;;;;;;4.65;2.65;;;18.10;62.90;;;;;;2409580;52;20972;-71
2021/08/29 03:30:01;;;;;;;4.62;2.50;;;18.10;62.90;;;;;;2619799;52;21022;-71
2021/08/29 03:32:27;;;;;;;4.65;2.70;;;18.10;63.00;;;;;;2604293;52;21005;-67
2021/08/29 03:35:00;;;;;;;3.67;2.10;;;18.10;63.00;;;;;;2370978;53;20966;-68
2021/08/29 03:37:27;;;;;;;3.90;2.30;;;18.10;63.10;;;;;;2350680;53;21425;-71
2021/08/29 03:39:54;;;;;;;4.10;2.28;;;18.10;63.00;;;;;;2369543;52;20978;-71
2021/08/29 03:42:20;;;;;;;4.18;2.28;;;18.10;63.00;;;;;;2354561;53;21045;-71
2021/08/29 03:44:47;;;;;;;4.25;2.12;;;18.20;63.10;;;;;;2619270;52;20954;-69
2021/08/29 03:47:15;;;;;;;4.78;2.40;;;18.20;63.20;;;;;;2604137;52;20926;-69
2021/08/29 03:49:42;;;;;;;5.05;3.00;;;18.10;63.10;;;;;;2374370;52;21085;-69
2021/08/29 03:52:08;;;;;;;4.70;3.08;;;18.20;63.30;;;;;;2363594;53;20989;-67
2021/08/29 03:54:37;;;;;;;6.00;3.37;;;18.20;64.00;;;;;;2612620;52;21532;-68
2021/08/29 03:57:04;;;;;;;6.18;3.05;;;18.20;63.20;;;;;;2360949;53;21096;-67
2021/08/29 03:59:30;;;;;;;5.20;3.15;;;18.30;63.30;;;;;;2373381;53;20961;-68
2021/08/29 04:02:06;;;;;;;5.07;2.92;;;18.20;63.20;;;;;;2484570;52;20961;-69
2021/08/29 04:04:33;;;;;;;5.80;3.45;;;18.20;63.20;;;;;;2372131;52;22986;-71
2021/08/29 04:07:03;;;;;;;5.20;3.25;;;18.20;63.20;;;;;;2475552;52;20921;-69
2021/08/29 04:09:31;;;;;;;4.72;3.08;;;18.20;63.30;;;;;;2369946;53;21337;-67
2021/08/29 04:11:58;;;;;;;5.12;3.17;;;18.20;63.10;;;;;;2370668;52;20978;-70
2021/08/29 04:14:25;;;;;;;5.80;3.50;;;18.20;63.10;;;;;;2547597;52;21795;-70
2021/08/29 04:16:53;;;;;;;4.60;3.10;;;18.20;63.10;;;;;;2366651;53;20945;-69
2021/08/29 04:19:21;;;;;;;5.03;3.20;;;18.20;63.10;;;;;;2618743;52;20930;-69
2021/08/29 04:21:48;;;;;;;5.95;3.55;;;18.20;63.20;;;;;;2367001;53;21484;-70
2021/08/29 04:24:17;;;;;;;6.62;3.35;;;18.20;63.30;;;;;;2618679;52;20969;-69
2021/08/29 04:26:44;;;;;;;6.40;4.05;;;18.20;63.30;;;;;;2368446;53;21685;-70
2021/08/29 04:29:11;;;;;;;6.72;3.37;;;18.10;63.20;;;;;;2367224;53;20894;-69
2021/08/29 04:31:39;;;;;;;5.65;3.30;;;18.10;63.40;;;;;;2354296;52;20974;-70
2021/08/29 04:34:08;;;;;;;5.40;3.37;;;18.10;63.50;;;;;;2366808;53;21729;-70
2021/08/29 04:36:36;;;;;;;5.68;3.35;;;18.10;63.70;;;;;;2366889;53;21366;-72
2021/08/29 04:39:05;;;;;;;4.78;3.10;;;18.10;63.70;;;;;;2435331;52;20982;-72
2021/08/29 04:41:31;;;;;;;5.95;3.55;;;18.10;63.80;;;;;;2589814;52;21079;-70
2021/08/29 04:43:57;;;;;;;5.70;3.60;;;18.00;63.70;;;;;;2350767;53;20997;-70
2021/08/29 04:46:24;;;;;;;4.72;2.78;;;18.10;63.80;;;;;;2363082;53;20921;-71
2021/08/29 04:48:50;;;;;;;5.37;3.60;;;18.00;63.80;;;;;;2366229;52;20933;-72
2021/08/29 04:51:17;;;;;;;5.68;3.50;;;18.00;63.90;;;;;;2366372;53;20970;-71
2021/08/29 04:53:43;;;;;;;5.10;2.80;;;18.00;63.80;;;;;;2413153;52;20938;-71
2021/08/29 04:56:11;;;;;;;3.37;2.12;;;17.90;63.70;;;;;;2366719;53;20961;-69
2021/08/29 04:58:37;;;;;;;3.65;1.98;;;17.90;63.70;;;;;;2383289;52;21045;-71
2021/08/29 05:01:04;;;;;;;3.70;1.83;;;17.90;63.70;;;;;;2370951;52;20926;-69
2021/08/29 05:03:30;;;;;;;3.15;1.62;;;17.80;63.70;;;;;;2597019;52;20946;-72
2021/08/29 05:05:57;;;;;;;3.10;1.70;;;17.80;63.80;;;;;;2374799;52;20966;-73
2021/08/29 05:08:26;;;;;;;3.65;1.50;;;17.70;64.00;;;;;;2362868;53;21040;-70
2021/08/29 05:10:55;;;;;;;2.58;1.40;;;17.70;64.20;;;;;;2367956;53;20939;-73
2021/08/29 05:13:21;;;;;;;2.92;1.55;;;17.60;64.40;;;;;;2385953;53;21554;-72
2021/08/29 05:15:48;;;;;;;3.50;1.90;;;17.60;64.70;;;;;;2617822;52;20921;-71
2021/08/29 05:18:14;;;;;;;3.35;1.60;;;17.50;64.90;;;;;;2350698;53;20979;-70
2021/08/29 05:20:43;;;;;;;2.78;1.48;;;17.50;65.10;;;;;;2365005;52;20950;-70
2021/08/29 05:23:18;;;;;;;2.80;1.52;;;17.50;65.30;;;;;;2347678;53;20954;-72
2021/08/29 05:25:44;;;;;;;3.10;1.58;;;17.50;65.60;;;;;;2618664;52;20969;-72
2021/08/29 05:28:11;;;;;;;2.90;1.48;;;17.40;65.70;;;;;;2618080;52;21205;-69
2021/08/29 05:30:38;;;;;;;2.97;1.58;;;17.50;66.00;;;;;;2365701;53;20914;-69
2021/08/29 05:33:05;;;;;;;2.92;1.50;;;17.40;66.10;;;;;;2369579;52;20921;-72
2021/08/29 05:35:32;;;;;;;3.10;1.70;;;17.40;66.20;;;;;;2584961;52;21477;-74
2021/08/29 05:37:59;;;;;;;3.55;1.95;;;17.40;66.40;;;;;;2360554;53;20966;-68
2021/08/29 05:40:26;;;;;;;3.33;2.08;;;17.50;66.70;;;;;;2366067;53;21012;-69
2021/08/29 05:42:52;;;;;;;2.87;1.65;;;17.40;66.80;;;;;;2367936;53;20980;-70
2021/08/29 05:45:18;;;;;;;3.67;2.12;;;17.50;67.00;;;;;;2366672;53;21005;-72
2021/08/29 05:47:54;;;;;;;3.30;1.58;;;17.50;67.10;;;;;;2366938;52;20981;-71
2021/08/29 05:50:25;;;;;;;3.35;1.60;;;17.50;67.30;;;;;;2368335;52;21636;-72
2021/08/29 05:52:51;;;;;;;3.20;1.90;;;17.50;67.40;;;;;;2364934;53;20950;-71
2021/08/29 05:55:18;;;;;;;3.33;1.90;;;17.50;67.50;;;;;;2375062;52;21573;-72
2021/08/29 05:57:44;;;;;;;2.83;1.45;;;17.50;67.60;;;;;;2540877;52;21506;-71
2021/08/29 06:00:12;;;;;;;3.53;1.90;;;17.50;67.70;;;;;;2435324;52;20930;-73
2021/08/29 06:02:38;;;;;;;3.45;2.00;;;17.50;67.80;;;;;;2370876;53;20953;-73
2021/08/29 06:05:09;;;;;;;3.78;1.90;;;17.60;68.00;;;;;;2370495;53;20977;-68
2021/08/29 06:07:36;;;;;;;3.20;1.85;;;17.60;68.10;;;;;;2481417;52;21029;-70
2021/08/29 06:10:04;;;;;;;3.62;2.45;;;17.60;68.10;;;;;;2566890;52;20978;-69
2021/08/29 06:12:30;;;;;;;3.60;1.90;;;17.60;68.20;;;;;;2459703;52;21029;-73
2021/08/29 06:14:57;;;;;;;3.50;1.95;;;17.60;68.20;;;;;;2371372;52;21026;-72
2021/08/29 06:17:24;;;;;;;3.08;1.77;;;17.60;68.30;;;;;;2348627;53;21034;-72
2021/08/29 06:19:52;;;;;;;3.53;2.00;;;17.60;68.30;;;;;;2410937;52;21770;-71
2021/08/29 06:22:18;;;;;;;3.22;1.85;;;17.70;68.50;;;;;;2551576;52;21437;-72
2021/08/29 06:24:44;;;;;;;3.28;2.00;;;17.70;68.50;;;;;;2351518;53;21060;-71
2021/08/29 06:27:11;;;;;;;4.03;2.58;;;17.70;68.60;;;;;;2395372;52;20938;-68
2021/08/29 06:29:37;;;;;;;3.78;2.35;;;17.70;68.70;;;;;;2491721;52;20947;-70
2021/08/29 06:32:05;;;;;;;3.53;2.00;;;17.70;68.80;;;;;;2371025;52;21818;-69
2021/08/29 06:34:35;;;;;;;3.50;2.10;;;17.70;68.90;;;;;;2369849;52;21874;-69
2021/08/29 06:37:02;;;;;;;3.67;2.60;;;17.70;68.90;;;;;;2370635;52;21078;-73
2021/08/29 06:39:28;;;;;;;3.70;2.25;;;17.70;68.90;;;;;;2353176;53;20929;-69
2021/08/29 06:41:54;;;;;;;5.37;2.50;;;17.80;69.10;;;;;;2370304;52;21000;-72
2021/08/29 06:44:21;;;;;;;3.28;1.98;;;17.80;69.10;;;;;;2361420;53;21037;-71
2021/08/29 06:46:51;;;;;;;3.15;1.90;;;17.80;69.20;;;;;;2364059;53;20949;-71
2021/08/29 06:49:20;;;;;;;3.45;2.05;;;17.80;69.30;;;;;;2514410;52;20974;-70
2021/08/29 06:51:46;;;;;;;5.47;2.50;;;17.90;69.50;;;;;;2366060;52;21021;-73
2021/08/29 06:54:14;;;;;;;4.37;2.05;;;17.90;69.40;;;;;;2374591;52;21009;-71
2021/08/29 06:56:40;;;;;;;4.18;2.37;;;17.90;69.40;;;;;;2363537;52;20986;-72
2021/08/29 06:59:06;;;;;;;5.05;3.15;;;17.90;69.50;;;;;;2358571;53;20925;-75
2021/08/29 07:01:33;;;;;;;3.55;2.58;;;17.90;69.60;;;;;;2375259;52;20934;-67
2021/08/29 07:03:59;;;;;;;3.95;2.20;;;17.90;69.60;;;;;;2360591;52;21005;-71
2021/08/29 07:06:26;;;;;;;4.72;2.00;;;18.00;69.80;;;;;;2371465;52;21018;-69
2021/08/29 07:08:52;;;;;;;3.50;2.08;;;18.00;69.80;;;;;;2365952;53;20930;-71
2021/08/29 07:11:18;;;;;;;3.12;1.87;;;18.00;69.80;;;;;;2366738;53;20914;-71
2021/08/29 07:13:45;;;;;;;3.10;1.75;;;18.00;69.80;;;;;;2365974;52;20989;-71
2021/08/29 07:16:12;;;;;;;2.92;1.60;;;18.00;69.80;;;;;;2366715;53;20910;-69
2021/08/29 07:18:38;;;;;;;3.28;1.80;;;18.10;69.90;;;;;;2366199;53;20914;-73
2021/08/29 07:21:04;;;;;;;3.53;2.10;;;18.10;69.80;;;;;;2371341;52;20965;-70
2021/08/29 07:23:31;;;;;;;2.87;1.62;;;18.10;69.80;;;;;;2618238;52;20913;-71
2021/08/29 07:25:58;;;;;;;3.33;1.77;;;18.10;69.90;;;;;;2365412;52;20942;-69
2021/08/29 07:28:25;;;;;;;4.10;2.17;;;18.10;69.90;;;;;;2458829;52;20956;-70
2021/08/29 07:30:51;;;;;;;3.45;2.05;;;18.20;70.00;;;;;;2365851;53;21005;-73
2021/08/29 07:33:19;;;;;;;3.90;2.17;;;18.20;70.00;;;;;;2374507;52;21530;-75
2021/08/29 07:35:45;;;;;;;3.87;2.25;;;18.20;70.00;;;;;;2549328;52;20970;-72
2021/08/29 07:38:14;;;;;;;3.72;2.30;;;18.20;70.00;;;;;;2511466;52;20929;-73
2021/08/29 07:40:41;;;;;;;3.40;2.30;;;18.20;70.10;;;;;;2366519;53;20937;-71
2021/08/29 07:43:09;;;;;;;3.42;2.17;;;18.20;70.20;;;;;;2395236;52;21373;-73
2021/08/29 07:45:36;;;;;;;4.03;2.58;;;18.20;70.20;;;;;;2402357;52;21853;-72
2021/08/29 07:48:03;;;;;;;3.85;2.45;;;18.30;70.40;;;;;;2370652;52;20951;-70
2021/08/29 07:50:30;;;;;;;4.32;2.67;;;18.30;70.40;;;;;;2360615;53;20911;-70
2021/08/29 07:52:57;;;;;;;3.62;2.42;;;18.30;70.40;;;;;;2370675;52;21073;-70
2021/08/29 07:55:23;;;;;;;4.15;2.42;;;18.30;70.50;;;;;;2369719;52;21005;-73
2021/08/29 07:57:53;;;;;;;4.22;2.83;;;18.30;70.50;;;;;;2371179;53;20975;-73
2021/08/29 08:00:20;;;;;;;5.93;3.35;;;18.40;70.60;;;;;;2360299;53;21784;-72
2021/08/29 08:02:49;;;;;;;4.15;2.60;;;18.30;70.40;;;;;;2592979;52;20978;-69
2021/08/29 08:05:15;;;;;;;4.05;2.65;;;18.40;70.60;;;;;;2370907;52;21038;-70
2021/08/29 08:07:42;;;;;;;3.83;2.75;;;18.40;70.70;;;;;;2347399;53;20997;-69
2021/08/29 08:10:08;;;;;;;4.43;3.10;;;18.40;70.70;;;;;;2370003;53;20992;-71
2021/08/29 08:12:35;;;;;;;7.18;3.17;;;18.40;70.80;;;;;;2360409;53;21398;-72
2021/08/29 08:15:02;;;;;;;5.60;3.45;;;18.50;70.80;;;;;;2365482;52;20953;-74
2021/08/29 08:17:29;;;;;;;4.60;3.12;;;18.50;70.90;;;;;;2366182;53;20958;-72
2021/08/29 08:19:55;;;;;;;5.15;3.45;;;18.50;70.80;;;;;;2369872;52;20942;-75
2021/08/29 08:22:22;;;;;;;5.45;3.87;;;18.50;70.80;;;;;;2401721;52;21502;-73
2021/08/29 08:24:49;;;;;;;5.80;4.10;;;18.60;70.90;;;;;;2366042;53;21382;-71
2021/08/29 08:27:16;;;;;;;6.50;4.37;;;18.60;70.90;;;;;;2450482;52;21001;-71
2021/08/29 08:29:43;;;;;;;5.20;3.85;;;18.60;70.80;;;;;;2365676;53;21425;-71
2021/08/29 08:32:12;;;;;;;5.40;3.95;;;18.60;70.80;;;;;;2371956;52;21034;-72
2021/08/29 08:34:39;;;;;;;6.85;4.72;;;18.60;70.80;;;;;;2366541;53;20949;-71
2021/08/29 08:37:05;;;;;;;8.25;5.07;;;18.60;70.80;;;;;;2371708;52;20934;-74
2021/08/29 08:39:32;;;;;;;8.70;5.78;;;18.60;70.70;;;;;;2366440;53;21509;-70
2021/08/29 08:41:59;;;;;;;7.47;5.62;;;18.60;70.60;;;;;;2366521;53;20969;-72
2021/08/29 08:44:25;;;;;;;8.48;6.00;;;18.60;70.70;;;;;;2370692;53;21351;-71
2021/08/29 08:46:52;;;;;;;7.00;4.82;;;18.60;70.60;;;;;;2366252;53;21430;-71
2021/08/29 08:49:21;;;;;;;9.05;5.85;;;18.60;70.60;;;;;;2366704;52;21017;-71
2021/08/29 08:51:49;;;;;;;7.70;5.72;;;18.60;70.70;;;;;;2370218;53;21035;-71
2021/08/29 08:54:17;;;;;;;6.65;4.75;;;18.60;70.80;;;;;;2347036;53;21588;-72
2021/08/29 08:56:43;;;;;;;7.78;5.50;;;18.60;70.80;;;;;;2617874;52;20910;-70
2021/08/29 08:59:10;;;;;;;7.10;4.90;;;18.60;70.80;;;;;;2371943;52;21406;-69
2021/08/29 09:01:36;;;;;;;8.95;5.72;;;18.60;70.70;;;;;;2366954;53;21072;-69
2021/08/29 09:04:02;;;;;;;7.30;5.47;;;18.60;70.70;;;;;;2356712;52;21015;-73
2021/08/29 09:06:29;;;;;;;6.68;4.72;;;18.60;70.70;;;;;;2555624;52;20949;-71
2021/08/29 09:09:01;;;;;;;7.25;4.87;;;18.60;70.80;;;;;;2372639;52;20930;-72
2021/08/29 09:11:37;;;;;;;7.30;4.90;;;18.60;70.90;;;;;;2374821;53;20930;-70
2021/08/29 09:14:04;;;;;;;6.95;4.97;;;18.60;70.90;;;;;;2364636;53;20938;-70
2021/08/29 09:16:33;;;;;;;7.70;4.80;;;18.60;71.10;;;;;;2404530;52;21890;-74
2021/08/29 09:19:01;;;;;;;7.30;5.18;;;18.60;71.20;;;;;;2371450;52;21469;-71
2021/08/29 09:21:31;;;;;;;9.27;5.32;;;18.70;71.30;;;;;;2367323;52;20937;-72
2021/08/29 09:23:59;;;;;;;6.85;4.60;;;18.70;71.30;;;;;;2366667;53;21080;-71
2021/08/29 09:26:27;;;;;;;6.62;4.97;;;18.70;71.40;;;;;;2512101;52;20971;-70
2021/08/29 09:28:57;;;;;;;7.65;5.50;;;18.70;71.30;;;;;;2347203;53;20926;-70
2021/08/29 09:31:40;;;;;;;7.60;4.72;;;18.70;71.40;;;;;;2404191;52;20933;-69
2021/08/29 09:34:06;;;;;;;6.57;4.57;;;18.70;71.40;;;;;;2371366;53;21002;-72
2021/08/29 09:36:33;;;;;;;7.00;4.53;;;18.80;71.50;;;;;;2384698;52;21013;-70
2021/08/29 09:39:20;;;;;;;6.35;4.28;;;18.80;71.40;;;;;;2378775;52;21527;-71
2021/08/29 09:41:46;;;;;;;7.07;4.70;;;18.80;71.20;;;;;;2359111;53;20949;-69
2021/08/29 09:44:17;;;;;;;7.82;4.65;;;18.80;71.20;;;;;;2366882;53;21778;-70
2021/08/29 09:47:02;;;;;;;5.95;4.28;;;18.80;71.10;;;;;;2399573;52;20946;-70
2021/08/29 09:49:34;;;;;;;6.68;4.12;;;18.80;70.90;;;;;;2351546;53;21022;-72
2021/08/29 09:52:02;;;;;;;6.82;3.87;;;18.80;70.90;;;;;;2373794;53;21022;-70
2021/08/29 09:54:40;;;;;;;6.28;3.83;;;18.80;70.90;;;;;;2366307;53;21259;-73
2021/08/29 09:57:10;;;;;;;6.45;4.22;;;18.80;70.90;;;;;;2397315;52;20986;-71
2021/08/29 09:59:44;;;;;;;7.30;4.65;;;18.80;71.10;;;;;;2410957;52;21010;-71
2021/08/29 10:02:20;;;;;;;5.75;3.85;;;18.80;71.30;;;;;;2365012;53;20946;-71
2021/08/29 10:04:47;;;;;;;7.18;4.35;;;18.80;71.30;;;;;;2374363;52;20946;-71
2021/08/29 10:07:17;;;;;;;6.18;4.40;;;18.80;71.50;;;;;;2355291;53;21418;-70
2021/08/29 10:09:52;;;;;;;6.03;4.05;;;18.80;71.60;;;;;;2366872;53;20945;-68
2021/08/29 10:12:19;;;;;;;6.12;4.18;;;18.90;71.60;;;;;;2371710;52;20957;-74
2021/08/29 10:14:45;;;;;;;6.30;3.70;;;18.90;71.70;;;;;;2365981;53;21005;-70
2021/08/29 10:17:11;;;;;;;6.55;4.45;;;18.90;71.80;;;;;;2400134;52;21009;-70
2021/08/29 10:19:38;;;;;;;5.93;4.03;;;18.90;71.80;;;;;;2366692;53;21060;-69
2021/08/29 10:22:06;;;;;;;7.05;4.05;;;18.90;71.70;;;;;;2366530;53;20930;-71
2021/08/29 10:24:34;;;;;;;6.45;4.55;;;18.90;71.60;;;;;;2367303;53;21000;-70
2021/08/29 10:27:08;;;;;;;7.22;4.47;;;19.00;71.60;;;;;;2371689;52;21762;-70
2021/08/29 10:29:41;;;;;;;7.85;4.40;;;19.00;71.40;;;;;;2375597;52;21002;-70
2021/08/29 10:32:20;;;;;;;6.60;3.85;;;19.00;71.40;;;;;;2349521;53;20946;-69
2021/08/29 10:34:46;;;;;;;6.00;3.78;;;19.00;71.40;;;;;;2376141;52;21030;-70
2021/08/29 10:37:13;;;;;;;6.60;4.32;;;19.00;71.40;;;;;;2360256;53;20962;-70
2021/08/29 10:39:39;;;;;;;6.05;3.97;;;19.00;71.50;;;;;;2397549;52;20933;-70
2021/08/29 10:42:06;;;;;;;5.90;3.85;;;19.00;71.50;;;;;;2375348;52;20955;-71
2021/08/29 10:44:34;;;;;;;6.60;4.20;;;19.00;71.60;;;;;;2351614;53;20968;-72
2021/08/29 10:47:01;;;;;;;6.57;4.47;;;19.10;71.70;;;;;;2362947;52;21014;-73
2021/08/29 10:49:28;;;;;;;6.45;4.43;;;19.00;71.70;;;;;;2421977;52;21090;-70
2021/08/29 10:51:55;;;;;;;6.57;3.92;;;19.10;71.80;;;;;;2372344;53;20963;-74
2021/08/29 10:54:21;;;;;;;6.05;4.10;;;19.10;71.70;;;;;;2374065;53;20935;-71
2021/08/29 10:56:48;;;;;;;6.30;3.92;;;19.10;71.70;;;;;;2352749;53;21086;-71
2021/08/29 10:59:26;;;;;;;6.80;3.92;;;19.10;71.70;;;;;;2379380;52;21014;-68
2021/08/29 11:02:10;;;;;;;6.30;4.20;;;19.10;71.60;;;;;;2462741;52;20959;-73
2021/08/29 11:04:45;;;;;;;7.93;3.83;;;19.20;71.80;;;;;;2363191;53;21034;-70
2021/08/29 11:07:11;;;;;;;6.45;3.95;;;19.20;71.80;;;;;;2366152;53;21432;-72
2021/08/29 11:09:48;;;;;;;6.45;4.15;;;19.20;71.90;;;;;;2411407;52;20951;-72
2021/08/29 11:12:35;;;;;;;6.62;4.28;;;19.20;71.90;;;;;;2328797;53;20999;-73
2021/08/29 11:15:06;;;;;;;5.85;3.65;;;19.30;72.00;;;;;;2369745;53;20950;-71
2021/08/29 11:17:34;;;;;;;5.85;3.60;;;19.30;72.10;;;;;;2361470;52;21077;-70
2021/08/29 11:20:18;;;;;;;6.07;3.92;;;19.30;72.10;;;;;;2350979;53;21403;-75
2021/08/29 11:22:50;;;;;;;5.20;3.50;;;19.30;71.80;;;;;;2321254;53;1403505;-73
2021/08/29 11:25:21;;;;;;;5.50;3.55;;;19.30;71.90;;;;;;2365722;53;21038;-70
2021/08/29 11:28:08;;;;;;;5.82;3.90;;;19.40;71.90;;;;;;2503563;52;20938;-72
2021/08/29 11:30:43;;;;;;;6.28;4.10;;;19.40;71.50;;;;;;2369815;53;21915;-69
2021/08/29 11:33:11;;;;;;;5.50;3.80;;;19.40;71.60;;;;;;2380765;52;20947;-72
2021/08/29 11:35:45;;;;;;;5.60;3.87;;;19.40;71.70;;;;;;2357710;52;21614;-74
2021/08/29 11:38:35;;;;;;;5.30;3.65;;;19.40;71.70;;;;;;2369444;53;20950;-70
2021/08/29 11:41:22;;;;;;;5.25;3.50;;;19.50;71.70;;;;;;2616955;52;20922;-70
2021/08/29 11:43:50;;;;;;;4.85;2.87;;;19.40;71.20;;;;;;2364837;52;21493;-70
2021/08/29 11:46:18;;;;;;;4.95;3.47;;;19.40;71.50;;;;;;2368440;52;20983;-72
2021/08/29 11:48:57;;;;;;;4.85;3.30;;;19.40;71.50;;;;;;2412048;52;20990;-72
2021/08/29 11:51:38;;;;;;;4.85;3.42;;;19.40;71.30;;;;;;2369788;52;21069;-71
2021/08/29 11:54:08;;;;;;;6.18;3.65;;;19.50;71.20;;;;;;2369057;53;21073;-71
2021/08/29 11:56:34;;;;;;;4.30;2.92;;;19.50;71.30;;;;;;2482817;52;20965;-71
2021/08/29 11:59:03;;;;;;;5.25;3.22;;;19.40;71.30;;;;;;2365401;53;20910;-70
2021/08/29 12:01:30;;;;;;;4.97;3.40;;;19.40;71.30;;;;;;2369827;52;21010;-71
2021/08/29 12:03:57;;;;;;;5.80;3.35;;;19.40;71.30;;;;;;2366383;53;20966;-71
2021/08/29 12:06:46;;;;;;;6.22;3.87;;;19.40;71.30;;;;;;2374807;52;21692;-71
2021/08/29 12:10:13;;;;;;;5.28;3.65;;;19.40;71.10;;;;;;2414372;52;21129;-73
2021/08/29 12:12:40;;;;;;;4.90;3.20;;;19.50;71.20;;;;;;2370974;53;20951;-73
2021/08/29 12:15:09;;;;;;;5.55;3.42;;;19.40;71.60;;;;;;2365325;52;21013;-73
2021/08/29 12:17:38;;;;;;;4.65;3.22;;;19.50;71.60;;;;;;2365535;53;21105;-68
2021/08/29 12:20:08;;;;;;;5.20;3.42;;;19.50;71.70;;;;;;2428669;53;21945;-71
2021/08/29 12:22:38;;;;;;;4.82;3.30;;;19.50;71.70;;;;;;2371700;52;21010;-71
2021/08/29 12:25:07;;;;;;;4.43;3.03;;;19.50;71.90;;;;;;2367038;53;21386;-68
2021/08/29 12:27:33;;;;;;;4.82;3.25;;;19.50;72.10;;;;;;2375670;52;20997;-72
2021/08/29 12:30:01;;;;;;;5.60;3.50;;;19.60;72.30;;;;;;2436500;52;20977;-72
2021/08/29 12:32:29;;;;;;;4.93;3.00;;;19.60;72.40;;;;;;2366670;53;20942;-72
2021/08/29 12:35:05;;;;;;;4.62;3.00;;;19.60;72.50;;;;;;2454951;52;20962;-71
2021/08/29 12:37:32;;;;;;;4.82;3.20;;;19.70;72.40;;;;;;2367959;53;20937;-71
2021/08/29 12:40:07;;;;;;;4.95;3.10;;;19.70;72.60;;;;;;2366978;53;20926;-71
2021/08/29 12:42:35;;;;;;;4.37;2.85;;;19.80;72.60;;;;;;2371961;52;21625;-70
2021/08/29 12:45:02;;;;;;;4.87;2.97;;;19.90;72.50;;;;;;2489562;52;20925;-74
2021/08/29 12:47:29;;;;;;;5.60;3.53;;;19.90;72.20;;;;;;2371121;53;20978;-72
2021/08/29 12:49:56;;;;;;;4.75;3.25;;;20.00;71.90;;;;;;2366973;53;21271;-70
2021/08/29 12:52:30;;;;;;;4.87;3.17;;;20.00;71.60;;;;;;2371028;52;20938;-71
2021/08/29 12:55:00;;;;;;;8.25;3.05;;;20.00;71.30;;;;;;2366999;53;20972;-71
2021/08/29 12:57:29;;;;;;;4.10;2.50;;;20.00;71.40;;;;;;2366042;53;20953;-72
2021/08/29 12:59:57;;;;;;;4.50;2.80;;;20.10;71.40;;;;;;2409522;52;21002;-71